createdAt,value
2022-12-17T00:01:12.154Z,0.38
2022-12-17T00:03:58.762Z,0.39
2022-12-17T00:06:45.116Z,0.41
2022-12-17T00:09:31.649Z,0.44
2022-12-17T00:12:18.324Z,0.44
2022-12-17T00:15:05.127Z,0.46
2022-12-17T00:17:52.689Z,0.54
2022-12-17T00:20:41.267Z,0.67
2022-12-17T00:23:28.398Z,0.56
2022-12-17T00:26:15.462Z,0.59
2022-12-17T00:29:01.832Z,0.47
2022-12-17T00:31:49.392Z,0.42
2022-12-17T00:34:37.705Z,0.43
2022-12-17T00:37:24.221Z,0.44
2022-12-17T00:40:10.625Z,0.47
2022-12-17T00:43:08.648Z,0.49
2022-12-17T00:45:51.252Z,0.55
2022-12-17T00:48:38.736Z,0.49
2022-12-17T00:51:26.634Z,0.42
2022-12-17T00:54:13.156Z,0.50
2022-12-17T00:57:00.233Z,0.51
2022-12-17T00:59:46.829Z,0.62
2022-12-17T01:02:33.446Z,0.59
2022-12-17T01:05:20.274Z,0.53
2022-12-17T01:08:13.787Z,0.51
2022-12-17T01:11:00.951Z,0.48
2022-12-17T01:13:47.187Z,0.47
2022-12-17T01:16:33.887Z,0.50
2022-12-17T01:19:20.492Z,0.50
2022-12-17T01:22:07.166Z,0.53
2022-12-17T01:24:54.696Z,0.53
2022-12-17T01:27:42.828Z,0.57
2022-12-17T01:30:29.955Z,0.56
2022-12-17T01:33:21.066Z,0.57
2022-12-17T01:36:07.748Z,0.54
2022-12-17T01:38:54.448Z,0.54
2022-12-17T01:41:42.518Z,0.58
2022-12-17T01:45:11.349Z,0.61
2022-12-17T01:48:03.029Z,0.65
2022-12-17T01:50:55.303Z,0.66
2022-12-17T01:53:45.090Z,0.70
2022-12-17T01:56:32.142Z,0.73
2022-12-17T01:59:21.208Z,0.73
2022-12-17T02:02:08.175Z,0.73
2022-12-17T02:04:55.233Z,0.76
2022-12-17T02:08:04.608Z,0.73
2022-12-17T02:11:03.589Z,0.76
2022-12-17T02:13:55.694Z,0.75
2022-12-17T02:16:53.000Z,0.82
2022-12-17T02:19:58.155Z,0.82
2022-12-17T02:22:58.943Z,0.85
2022-12-17T02:25:58.043Z,0.88
2022-12-17T02:28:49.662Z,0.84
2022-12-17T02:31:37.944Z,0.83
2022-12-17T02:34:24.866Z,0.81
2022-12-17T02:37:11.311Z,0.78
2022-12-17T02:39:57.982Z,0.76
2022-12-17T02:42:46.654Z,0.74
2022-12-17T02:45:35.968Z,0.74
2022-12-17T02:48:24.740Z,0.69
2022-12-17T02:51:14.519Z,0.71
2022-12-17T02:54:03.539Z,0.71
2022-12-17T02:56:50.137Z,0.69
2022-12-17T03:17:47.979Z,0.68
2022-12-17T03:33:12.802Z,0.74
2022-12-17T03:35:59.501Z,0.71
2022-12-17T03:38:46.239Z,0.70
2022-12-17T03:41:32.951Z,0.72
2022-12-17T03:49:36.116Z,0.64
2022-12-17T03:52:22.763Z,0.60
2022-12-17T03:55:09.377Z,0.70
2022-12-17T03:57:55.646Z,0.78
2022-12-17T04:00:44.403Z,0.75
2022-12-17T04:13:17.014Z,0.59
2022-12-17T04:16:03.819Z,0.54
2022-12-17T04:18:50.459Z,0.48
2022-12-17T04:21:37.044Z,0.49
2022-12-17T04:24:24.161Z,0.64
2022-12-17T04:27:10.761Z,0.63
2022-12-17T04:29:58.442Z,0.51
2022-12-17T04:32:44.980Z,0.47
2022-12-17T04:48:21.540Z,0.54
2022-12-17T04:51:08.303Z,0.49
2022-12-17T04:53:54.841Z,0.49
2022-12-17T04:56:40.641Z,0.51
2022-12-17T04:59:27.243Z,0.52
2022-12-17T05:02:15.034Z,0.54
2022-12-17T05:10:32.033Z,0.41
2022-12-17T05:13:20.219Z,0.34
2022-12-17T05:16:09.244Z,0.47
2022-12-17T05:18:55.980Z,0.45
2022-12-17T05:21:42.507Z,0.37
2022-12-17T05:24:28.963Z,0.36
2022-12-17T05:27:17.276Z,0.35
2022-12-17T05:30:03.832Z,0.37
2022-12-17T05:32:51.037Z,0.40
2022-12-17T05:35:37.481Z,0.44
2022-12-17T05:38:26.127Z,0.46
2022-12-17T05:41:15.136Z,0.47
2022-12-17T05:44:03.919Z,0.49
2022-12-17T05:46:50.827Z,0.68
2022-12-17T05:49:37.199Z,0.71
2022-12-17T05:52:24.132Z,0.75
2022-12-17T05:55:10.816Z,0.57
2022-12-17T05:57:57.398Z,0.44
2022-12-17T06:00:45.523Z,0.38
2022-12-17T06:03:32.217Z,0.26
2022-12-17T06:06:18.906Z,0.27
2022-12-17T06:09:06.626Z,0.29
2022-12-17T06:11:55.613Z,0.31
2022-12-17T06:14:46.162Z,0.27
2022-12-17T06:17:34.072Z,0.25
2022-12-17T06:20:20.600Z,0.24
2022-12-17T06:23:17.487Z,0.19
2022-12-17T06:26:04.060Z,0.19
2022-12-17T06:28:50.779Z,0.19
2022-12-17T06:31:37.787Z,0.19
2022-12-17T06:34:31.881Z,0.19
2022-12-17T06:37:18.291Z,0.17
2022-12-17T06:40:04.975Z,0.19
2022-12-17T06:42:51.979Z,0.25
2022-12-17T06:45:40.927Z,0.30
2022-12-17T06:48:28.106Z,0.28
2022-12-17T06:51:16.032Z,0.27
2022-12-17T06:54:05.141Z,0.23
2022-12-17T06:56:54.210Z,0.25
2022-12-17T06:59:40.938Z,0.25
2022-12-17T07:02:29.429Z,0.30
2022-12-17T07:05:17.272Z,0.36
2022-12-17T07:08:05.734Z,0.43
2022-12-17T07:10:52.316Z,0.44
2022-12-17T07:13:39.304Z,0.49
2022-12-17T07:16:26.372Z,0.52
2022-12-17T07:19:13.011Z,0.57
2022-12-17T07:21:59.314Z,0.66
2022-12-17T07:24:47.778Z,0.73
2022-12-17T07:27:34.645Z,0.75
2022-12-17T07:30:21.508Z,0.75
2022-12-17T07:33:18.202Z,0.83
2022-12-17T07:36:05.808Z,0.89
2022-12-17T07:38:52.860Z,0.95
2022-12-17T07:41:41.259Z,1.01
2022-12-17T07:44:28.053Z,1.08
2022-12-17T07:47:14.639Z,1.11
2022-12-17T07:50:01.364Z,1.19
2022-12-17T07:52:47.929Z,1.18
2022-12-17T07:55:36.008Z,1.23
2022-12-17T07:58:27.582Z,1.28
2022-12-17T08:01:17.842Z,1.36
2022-12-17T08:04:04.790Z,1.41
2022-12-17T08:06:53.896Z,1.43
2022-12-17T08:09:43.307Z,1.47
2022-12-17T08:12:29.947Z,1.51
2022-12-17T08:15:17.818Z,1.55
2022-12-17T08:18:03.831Z,1.66
2022-12-17T08:20:52.185Z,1.67
2022-12-17T08:23:39.004Z,1.62
2022-12-17T08:26:25.771Z,1.66
2022-12-17T08:29:12.351Z,1.65
2022-12-17T08:32:00.431Z,1.60
2022-12-17T08:34:47.635Z,1.67
2022-12-17T08:37:34.117Z,1.64
2022-12-17T08:40:20.750Z,1.75
2022-12-17T08:43:07.385Z,1.95
2022-12-17T08:45:53.833Z,2.09
2022-12-17T08:48:41.999Z,2.29
2022-12-17T08:51:28.882Z,2.27
2022-12-17T08:54:15.419Z,2.20
2022-12-17T08:57:02.181Z,2.23
2022-12-17T09:00:03.337Z,2.25
2022-12-17T09:02:50.166Z,2.28
2022-12-17T09:05:38.204Z,2.25
2022-12-17T09:08:26.244Z,2.31
2022-12-17T09:11:12.862Z,2.36
2022-12-17T09:14:01.385Z,2.40
2022-12-17T09:16:48.693Z,2.44
2022-12-17T09:19:50.094Z,2.37
2022-12-17T09:22:37.900Z,2.33
2022-12-17T09:25:24.626Z,2.34
2022-12-17T09:28:10.922Z,2.27
2022-12-17T09:30:57.568Z,2.32
2022-12-17T09:33:44.133Z,2.44
2022-12-17T09:36:30.824Z,2.47
2022-12-17T09:39:18.970Z,2.44
2022-12-17T09:42:15.942Z,2.41
2022-12-17T09:45:09.676Z,2.35
2022-12-17T09:48:08.909Z,2.29
2022-12-17T09:50:55.886Z,2.17
2022-12-17T09:53:54.825Z,2.14
2022-12-17T09:56:46.984Z,2.22
2022-12-17T09:59:40.099Z,2.23
2022-12-17T10:02:33.922Z,2.25
2022-12-17T10:05:22.966Z,2.36
2022-12-17T10:08:11.652Z,2.39
2022-12-17T10:11:13.122Z,2.29
2022-12-17T10:14:01.110Z,2.37
2022-12-17T10:16:56.645Z,2.44
2022-12-17T10:19:49.580Z,2.35
2022-12-17T10:22:39.675Z,2.29
2022-12-17T10:25:32.919Z,2.33
2022-12-17T10:28:21.746Z,2.32
2022-12-17T10:31:10.248Z,2.29
2022-12-17T10:33:59.474Z,2.29
2022-12-17T10:36:55.627Z,2.29
2022-12-17T10:39:44.223Z,2.22
2022-12-17T10:42:40.663Z,2.26
2022-12-17T10:45:43.228Z,2.37
2022-12-17T10:48:42.882Z,2.34
2022-12-17T10:51:40.214Z,2.38
2022-12-17T10:54:42.616Z,2.45
2022-12-17T10:57:45.809Z,2.53
2022-12-17T11:00:49.733Z,2.66
2022-12-17T11:03:50.556Z,2.79
2022-12-17T11:06:45.824Z,2.88
2022-12-17T11:09:45.034Z,3.05
2022-12-17T11:12:34.750Z,3.28
2022-12-17T11:15:34.867Z,3.50
2022-12-17T11:18:23.229Z,3.41
2022-12-17T11:21:23.044Z,3.63
2022-12-17T11:24:22.024Z,3.66
2022-12-17T11:27:22.266Z,3.37
2022-12-17T11:30:10.220Z,3.43
2022-12-17T11:33:25.469Z,3.55
2022-12-17T11:36:23.021Z,3.63
2022-12-17T11:39:26.101Z,3.78
2022-12-17T11:42:23.275Z,3.88
2022-12-17T11:45:18.917Z,3.91
2022-12-17T11:48:13.160Z,3.96
2022-12-17T11:51:11.289Z,4.08
2022-12-17T11:54:15.259Z,4.07
2022-12-17T11:57:08.786Z,4.03
2022-12-17T12:00:06.204Z,4.15
2022-12-17T12:03:12.434Z,3.99
2022-12-17T12:06:09.327Z,3.97
2022-12-17T12:09:18.102Z,3.88
2022-12-17T12:12:19.916Z,3.85
2022-12-17T12:15:20.646Z,3.86
2022-12-17T12:18:12.769Z,3.77
2022-12-17T12:21:28.201Z,3.78
2022-12-17T12:24:34.161Z,3.56
2022-12-17T12:27:42.375Z,3.64
2022-12-17T12:30:34.462Z,3.78
2022-12-17T12:33:34.725Z,3.52
2022-12-17T12:36:24.720Z,3.62
2022-12-17T12:39:15.170Z,3.48
2022-12-17T12:42:11.994Z,3.20
2022-12-17T12:45:08.817Z,3.15
2022-12-17T12:48:06.022Z,3.13
2022-12-17T12:51:04.378Z,2.93
2022-12-17T12:53:50.367Z,2.91
2022-12-17T12:56:48.462Z,3.07
2022-12-17T12:59:46.209Z,3.12
2022-12-17T13:02:47.720Z,3.15
2022-12-17T13:05:35.644Z,3.32
2022-12-17T13:08:17.145Z,3.11
2022-12-17T13:10:46.069Z,3.20
2022-12-17T13:13:28.915Z,3.11
2022-12-17T13:16:05.226Z,2.65
2022-12-17T13:18:37.126Z,2.71
2022-12-17T13:21:25.470Z,3.02
2022-12-17T13:23:54.562Z,3.34
2022-12-17T13:26:26.688Z,4.91
2022-12-17T13:29:20.882Z,4.77
2022-12-17T13:32:07.165Z,4.09
2022-12-17T13:34:52.112Z,3.63
2022-12-17T13:37:33.427Z,3.44
2022-12-17T13:40:21.495Z,4.26
2022-12-17T13:42:52.226Z,5.03
2022-12-17T13:45:26.298Z,4.46
2022-12-17T13:47:59.533Z,3.94
2022-12-17T13:50:34.766Z,3.28
2022-12-17T13:53:12.733Z,3.09
2022-12-17T13:55:41.900Z,2.94
2022-12-17T13:58:24.630Z,5.22
2022-12-17T14:01:05.965Z,7.62
2022-12-17T14:06:35.790Z,13.16
2022-12-17T14:09:05.771Z,15.09
2022-12-17T14:11:55.778Z,16.50
2022-12-17T14:14:34.260Z,17.13
2022-12-17T14:17:05.843Z,16.99
2022-12-17T14:19:38.041Z,16.71
2022-12-17T14:22:07.550Z,16.20
2022-12-17T14:24:36.871Z,14.68
2022-12-17T14:27:06.003Z,14.37
2022-12-17T14:29:35.101Z,13.96
2022-12-17T14:32:24.737Z,13.92
2022-12-17T14:35:00.424Z,13.87
2022-12-17T14:37:31.124Z,13.67
2022-12-17T14:40:06.314Z,12.82
2022-12-17T14:42:38.330Z,10.48
2022-12-17T14:45:23.838Z,8.04
2022-12-17T14:47:58.478Z,5.97
2022-12-17T14:50:35.145Z,4.53
2022-12-17T14:53:22.320Z,3.51
2022-12-17T14:55:56.311Z,2.74
2022-12-17T14:58:27.733Z,1.98
2022-12-17T15:01:05.914Z,1.50
2022-12-17T15:03:40.278Z,0.94
2022-12-17T15:06:14.580Z,0.63
2022-12-17T15:08:46.933Z,0.40
2022-12-17T15:11:20.311Z,0.20
2022-12-17T15:13:54.589Z,0.03
2022-12-17T15:16:25.648Z,-0.12
2022-12-17T15:18:54.985Z,-0.27
2022-12-17T15:21:26.565Z,-0.46
2022-12-17T15:23:56.471Z,-0.67
2022-12-17T15:26:25.681Z,-0.72
2022-12-17T15:28:55.195Z,-0.83
2022-12-17T15:31:27.590Z,-0.89
2022-12-17T15:33:59.580Z,-1.05
2022-12-17T15:36:31.926Z,-1.12
2022-12-17T15:39:01.348Z,-1.24
2022-12-17T15:41:48.051Z,-1.31
2022-12-17T15:44:20.628Z,-1.51
2022-12-17T15:46:49.843Z,-1.61
2022-12-17T15:49:19.181Z,-1.70
2022-12-17T15:51:50.298Z,-1.79
2022-12-17T15:54:19.384Z,-1.82
2022-12-17T15:56:54.720Z,-1.85
2022-12-17T15:59:24.084Z,-1.89
2022-12-17T16:01:53.473Z,-1.99
2022-12-17T16:04:25.218Z,-1.98
2022-12-17T16:06:56.215Z,-2.03
2022-12-17T16:09:27.203Z,-2.11
2022-12-17T16:11:56.781Z,-2.17
2022-12-17T16:14:26.205Z,-2.21
2022-12-17T16:16:55.203Z,-2.23
2022-12-17T16:19:24.251Z,-2.29
2022-12-17T16:21:53.288Z,-2.34
2022-12-17T16:24:23.704Z,-2.34
2022-12-17T16:26:52.808Z,-2.37
2022-12-17T16:29:21.994Z,-2.41
2022-12-17T16:31:51.433Z,-2.44
2022-12-17T16:34:20.537Z,-2.44
2022-12-17T16:36:49.705Z,-2.43
2022-12-17T16:39:20.704Z,-2.41
2022-12-17T16:41:51.201Z,-2.47
2022-12-17T16:44:20.592Z,-2.50
2022-12-17T16:46:50.132Z,-2.54
2022-12-17T16:49:21.859Z,-2.55
2022-12-17T16:51:55.868Z,-2.52
2022-12-17T16:54:30.714Z,-2.57
2022-12-17T16:57:04.189Z,-2.57
2022-12-17T16:59:33.255Z,-2.51
2022-12-17T17:02:03.942Z,-2.56
2022-12-17T17:04:33.256Z,-2.55
2022-12-17T17:07:02.424Z,-2.55
2022-12-17T17:09:31.741Z,-2.57
2022-12-17T17:12:03.354Z,-2.64
2022-12-17T17:14:33.973Z,-2.71
2022-12-17T17:17:03.077Z,-2.66
2022-12-17T17:19:33.991Z,-2.70
2022-12-17T17:22:03.637Z,-2.74
2022-12-17T17:24:33.042Z,-2.78
2022-12-17T17:27:02.147Z,-2.83
2022-12-17T17:29:31.569Z,-2.84
2022-12-17T17:32:10.216Z,-2.85
2022-12-17T17:34:40.386Z,-2.93
2022-12-17T17:37:09.588Z,-3.07
2022-12-17T17:39:38.703Z,-3.15
2022-12-17T17:42:08.301Z,-3.11
2022-12-17T17:44:38.387Z,-3.18
2022-12-17T17:47:09.461Z,-3.20
2022-12-17T17:49:38.886Z,-3.22
2022-12-17T17:52:10.404Z,-3.26
2022-12-17T17:54:42.615Z,-3.27
2022-12-17T17:57:12.241Z,-3.34
2022-12-17T17:59:41.858Z,-3.44
2022-12-17T18:02:14.027Z,-3.45
2022-12-17T18:04:43.554Z,-3.46
2022-12-17T18:07:28.852Z,-3.50
2022-12-17T18:09:59.968Z,-3.44
2022-12-17T18:12:46.574Z,-3.50
2022-12-17T18:15:17.484Z,-3.53
2022-12-17T18:17:52.790Z,-3.58
2022-12-17T18:20:21.835Z,-3.36
2022-12-17T18:22:51.505Z,-3.43
2022-12-17T18:25:20.686Z,-3.55
2022-12-17T18:27:52.508Z,-3.43
2022-12-17T18:30:21.945Z,-3.41
2022-12-17T18:32:52.441Z,-3.46
2022-12-17T18:35:21.583Z,-3.56
2022-12-17T18:37:50.809Z,-3.62
2022-12-17T18:40:20.137Z,-3.71
2022-12-17T18:43:06.687Z,-3.83
2022-12-17T18:45:38.792Z,-3.88
2022-12-17T18:48:09.466Z,-3.82
2022-12-17T18:50:38.996Z,-3.81
2022-12-17T18:53:08.867Z,-3.83
2022-12-17T18:55:40.563Z,-3.87
2022-12-17T18:58:10.494Z,-3.94
2022-12-17T19:00:40.010Z,-3.89
2022-12-17T19:03:10.536Z,-3.85
2022-12-17T19:05:45.810Z,-3.91
2022-12-17T19:08:16.422Z,-3.95
2022-12-17T19:10:45.494Z,-4.04
2022-12-17T19:13:14.629Z,-4.12
2022-12-17T19:15:43.786Z,-4.16
2022-12-17T19:18:14.271Z,-4.15
2022-12-17T19:20:43.338Z,-4.23
2022-12-17T19:23:12.491Z,-4.29
2022-12-17T19:25:41.479Z,-4.30
2022-12-17T19:28:10.566Z,-4.30
2022-12-17T19:30:39.584Z,-4.19
2022-12-17T19:33:08.617Z,-4.24
2022-12-17T19:35:39.117Z,-4.18
2022-12-17T19:38:08.100Z,-4.27
2022-12-17T19:40:37.167Z,-4.17
2022-12-17T19:43:06.413Z,-4.26
2022-12-17T19:45:35.560Z,-4.29
2022-12-17T19:48:05.104Z,-4.38
2022-12-17T19:50:38.729Z,-4.30
2022-12-17T19:53:07.952Z,-4.33
2022-12-17T19:55:37.044Z,-4.31
2022-12-17T19:58:06.116Z,-4.37
2022-12-17T20:00:36.896Z,-4.42
2022-12-17T20:03:07.422Z,-4.47
2022-12-17T20:05:38.091Z,-4.53
2022-12-17T20:08:07.489Z,-4.52
2022-12-17T20:10:36.498Z,-4.56
2022-12-17T20:13:06.243Z,-4.58
2022-12-17T20:15:35.521Z,-4.66
2022-12-17T20:18:04.939Z,-4.79
2022-12-17T20:20:34.002Z,-4.84
2022-12-17T20:23:04.528Z,-4.74
2022-12-17T20:25:33.591Z,-4.35
2022-12-17T20:28:03.265Z,-4.30
2022-12-17T20:30:32.625Z,-4.36
2022-12-17T20:33:01.640Z,-4.36
2022-12-17T20:35:30.915Z,-4.39
2022-12-17T20:37:59.938Z,-4.47
2022-12-17T20:40:30.700Z,-4.59
2022-12-17T20:42:59.788Z,-4.62
2022-12-17T20:45:29.107Z,-4.69
2022-12-17T20:47:58.141Z,-4.77
2022-12-17T20:50:27.531Z,-4.49
2022-12-17T20:53:02.949Z,-4.39
2022-12-17T20:55:33.667Z,-4.35
2022-12-17T20:58:02.741Z,-4.50
2022-12-17T21:00:32.125Z,-4.47
2022-12-17T21:03:01.540Z,-4.22
2022-12-17T21:05:34.450Z,-4.26
2022-12-17T21:08:03.868Z,-4.42
2022-12-17T21:10:35.017Z,-4.24
2022-12-17T21:13:21.358Z,-4.25
2022-12-17T21:15:51.017Z,-4.42
2022-12-17T21:18:20.036Z,-4.63
2022-12-17T21:20:58.158Z,-4.69
2022-12-17T21:23:28.611Z,-4.67
2022-12-17T21:26:08.769Z,-4.68
2022-12-17T21:28:42.369Z,-4.75
2022-12-17T21:31:18.547Z,-4.75
2022-12-17T21:33:48.693Z,-4.74
2022-12-17T21:36:20.706Z,-4.71
2022-12-17T21:38:51.146Z,-4.65
2022-12-17T21:41:24.869Z,-4.65
2022-12-17T21:43:55.292Z,-4.75
2022-12-17T21:46:26.127Z,-4.88
2022-12-17T21:48:57.174Z,-4.89
2022-12-17T21:51:27.588Z,-4.91
2022-12-17T21:53:59.600Z,-5.05
2022-12-17T21:56:30.773Z,-5.12
2022-12-17T21:59:02.012Z,-5.19
2022-12-17T22:01:34.565Z,-5.23
2022-12-17T22:04:06.342Z,-5.29
2022-12-17T22:06:43.089Z,-5.36
2022-12-17T22:09:21.752Z,-5.19
2022-12-17T22:12:15.287Z,-5.08
2022-12-17T22:14:44.713Z,-5.03
2022-12-17T22:17:13.719Z,-4.95
2022-12-17T22:19:43.060Z,-4.93
2022-12-17T22:22:12.147Z,-4.89
2022-12-17T22:24:41.233Z,-4.96
2022-12-17T22:27:11.766Z,-4.95
2022-12-17T22:29:58.073Z,-5.02
2022-12-17T22:32:44.677Z,-5.21
2022-12-17T22:36:38.237Z,-5.31
2022-12-17T22:41:04.148Z,-5.21
2022-12-17T22:44:35.922Z,-5.05
2022-12-17T22:44:44.910Z,-5.07
2022-12-17T22:46:32.992Z,-4.93
2022-12-17T22:49:02.146Z,-4.89
2022-12-17T22:51:39.863Z,-4.95
2022-12-17T22:54:10.864Z,-4.93
2022-12-17T22:57:10.750Z,-4.89
2022-12-17T22:59:33.505Z,-4.95
2022-12-17T23:02:02.681Z,-4.95
2022-12-17T23:04:31.741Z,-4.96
2022-12-17T23:07:00.908Z,-5.02
2022-12-17T23:09:30.040Z,-5.04
2022-12-17T23:12:19.047Z,-5.03
2022-12-17T23:14:49.650Z,-4.98
2022-12-17T23:17:18.690Z,-4.88
2022-12-17T23:19:47.799Z,-4.83
2022-12-17T23:22:21.931Z,-4.97
2022-12-17T23:24:51.526Z,-5.03
2022-12-17T23:27:20.698Z,-4.94
2022-12-17T23:29:51.403Z,-4.80
2022-12-17T23:32:20.561Z,-4.72
2022-12-17T23:34:49.801Z,-4.74
2022-12-17T23:37:18.939Z,-4.89
2022-12-17T23:39:48.294Z,-4.97
2022-12-17T23:42:17.568Z,-4.93
2022-12-17T23:44:46.688Z,-4.93
2022-12-17T23:47:17.219Z,-5.12
2022-12-17T23:49:46.263Z,-5.27
2022-12-17T23:52:15.350Z,-5.20
2022-12-17T23:54:44.439Z,-5.11
2022-12-17T23:57:13.452Z,-5.28
2022-12-17T23:59:42.740Z,-5.38
